LSGGLSZS

Guest
Details From LSGG - Geneva
To LSZS - Samedan
Flight Number -
Tags Routegen Generated
Created
Modified
Stats Distance 160 nm / 297 km
Max Altitude 800 ft / 244 m
Waypoints 10
Social Downloads 7
Likes 0
Share VATSIM

Download

Looking for another format? Having issues loading an existing format? Contact us
Advertisement - Login to hide

Notes

Departing runway 4 LSGG. Arriving runway 2 LSZS.

Route

LSGG +46.30_+006.20 +46.33_+006.28 +46.33_+006.36 +46.37_+007.57 +46.40_+009.60 +46.40_+009.69 +46.43_+009.76 +46.46_+009.83 LSZS

ID Type Via Altitude Latitude Longitude Leg Dist Tot Dist Heading (true) Name
O LSGG APT - 0 ft / 0 m 46.25040˚ 6.12706˚ - 0 nm - -
+46.30_+006.20 LATLON - 800 ft / 244 m 46.30114˚ 6.20171˚ 4 nm 4 nm 45° / 46° -
+46.33_+006.28 LATLON - 800 ft / 244 m 46.32516˚ 6.27797˚ 3 nm 7 nm 65° / 66° -
+46.33_+006.36 LATLON - 800 ft / 244 m 46.32972˚ 6.36154˚ 3 nm 11 nm 85° / 86° -
+46.37_+007.57 LATLON - 800 ft / 244 m 46.36678˚ 7.57328˚ 50 nm 61 nm 87° / 88° -
+46.40_+009.60 LATLON - 800 ft / 244 m 46.40373˚ 9.60163˚ 84 nm 145 nm 88° / 89° -
+46.40_+009.69 LATLON - 800 ft / 244 m 46.40476˚ 9.68558˚ 3 nm 149 nm 89° / 89° -
+46.43_+009.76 LATLON - 800 ft / 244 m 46.42553˚ 9.76396˚ 3 nm 152 nm 69° / 69° -
+46.46_+009.83 LATLON - 800 ft / 244 m 46.46353˚ 9.82735˚ 3 nm 156 nm 49° / 49° -
O LSZS APT - 0 ft / 0 m 46.52683˚ 9.87829˚ 4 nm 160 nm 29° / 29° Samedan

Altitude Profile

Advertisement - Login to hide

LSGG

Details ICAO LSGG (GVA)
Name Geneva
Region Switzerland
Timezone Europe/Zurich (UTC+1.0)
Stats Elevation 1,410 ft / 430 m (AMSL)
Location 46.237755° 6.106173°
Runways 2
Magnetic Variation 1.737° E

METAR

LSGG 122220Z 28003KT CAVOK M02/M02 Q1019 NOSIG

Decode

TAF

TAF LSGG 122025Z 1221/1403 VRB03KT CAVOK TX04/1315Z TNM04/1306Z PROB30 TEMPO 1305/1309 0600 FZFG VV003 BECMG 1309/1311 23010KT 9999 SCT140 TEMPO 1315/1403 24015G25KT PROB40 TEMPO 1318/1403 4500 RA

Decode

Departure Runways

ID Width Length Bearing (true) Bearing (mag) Surface Threshold Offset Overrun Length
05 180 ft / 55 m 12,796 ft / 3,900 m 45.43° 43.69° Concrete 1,079 ft / 329 m 66 ft / 20 m
05L 98 ft / 30 m 2,701 ft / 823 m 45.44° 43.70° Grass 610 ft / 186 m 0 ft / 0 m
23 180 ft / 55 m 12,796 ft / 3,900 m 225.45° 223.71° Concrete 0 ft / 0 m 66 ft / 20 m
23R 98 ft / 30 m 2,701 ft / 823 m 225.45° 223.71° Grass 997 ft / 304 m 0 ft / 0 m

LSZS

Details ICAO LSZS (SMV)
Name Samedan
Region Switzerland
Timezone Europe/Zurich (UTC+1.0)
Stats Elevation 5,600 ft / 1,707 m (AMSL)
Location 46.534207° 9.883938°
Runways 1
Magnetic Variation 2.656° E

METAR

LSZS 122220Z AUTO VRB02KT 9999 SCT080 SCT100 M06/M08 Q1012 RESN

Decode

TAF

Not found

Destination Runways

ID Width Length Bearing (true) Bearing (mag) Surface Threshold Offset Overrun Length
03 131 ft / 40 m 6,059 ft / 1,847 m 29.10° 26.44° Asphalt 0 ft / 0 m 0 ft / 0 m
21 131 ft / 40 m 6,059 ft / 1,847 m 209.10° 206.44° Asphalt 361 ft / 110 m 0 ft / 0 m

Popular Alternatives